createdAt,value
2023-09-29T00:08:22.350Z,101036.38
2023-09-29T00:12:11.402Z,101037.80
2023-09-29T00:15:59.774Z,101035.26
2023-09-29T00:19:49.019Z,101032.85
2023-09-29T00:23:23.339Z,101032.14
2023-09-29T00:42:42.963Z,101033.58
2023-09-29T00:46:32.332Z,101026.60
2023-09-29T00:50:22.055Z,101027.65
2023-09-29T00:54:11.107Z,101027.45
2023-09-29T00:58:27.063Z,101030.73
2023-09-29T01:02:10.360Z,101034.89
2023-09-29T01:06:00.668Z,101030.84
2023-09-29T01:09:50.598Z,101034.14
2023-09-29T01:25:28.640Z,101026.26
2023-09-29T01:29:17.046Z,101025.98
2023-09-29T01:33:06.405Z,101022.95
2023-09-29T01:36:47.237Z,101021.48
2023-09-29T01:40:36.578Z,101020.23
2023-09-29T01:44:27.422Z,101014.38
2023-09-29T02:03:55.287Z,101009.32
2023-09-29T02:07:37.996Z,101012.13
2023-09-29T02:11:29.534Z,101008.00
2023-09-29T02:15:19.270Z,101007.27
2023-09-29T02:34:28.871Z,100997.17
2023-09-29T02:38:12.211Z,100996.09
2023-09-29T02:42:02.010Z,100998.16
2023-09-29T02:45:51.669Z,100992.98
2023-09-29T03:05:18.623Z,100990.56
2023-09-29T03:09:08.080Z,100993.92
2023-09-29T03:12:58.523Z,100993.11
2023-09-29T03:16:48.296Z,100998.16
2023-09-29T03:20:38.948Z,100998.36
2023-09-29T03:40:03.890Z,100997.21
2023-09-29T03:43:53.211Z,100999.84
2023-09-29T03:47:44.084Z,101001.41
2023-09-29T04:03:02.681Z,100987.88
2023-09-29T04:07:15.663Z,100989.35
2023-09-29T04:11:07.387Z,100986.60
2023-09-29T04:14:57.160Z,100991.27
2023-09-29T04:34:21.764Z,100977.27
2023-09-29T04:38:13.609Z,100977.45
2023-09-29T04:42:02.915Z,100985.16
2023-09-29T04:45:53.457Z,100981.02
2023-09-29T05:08:35.319Z,100981.13
2023-09-29T05:12:25.011Z,100980.95
2023-09-29T05:16:14.305Z,100981.77
2023-09-29T05:19:58.522Z,100982.19
2023-09-29T05:42:50.884Z,100988.85
2023-09-29T05:46:40.293Z,100990.67
2023-09-29T05:50:29.895Z,100990.25
2023-09-29T06:16:27.144Z,100997.33
2023-09-29T06:19:49.610Z,101001.64
2023-09-29T06:23:38.777Z,101000.79
2023-09-29T06:27:01.388Z,100999.05
2023-09-29T06:29:35.870Z,101001.63
2023-09-29T06:32:11.943Z,101002.20
2023-09-29T06:35:13.463Z,101002.58
2023-09-29T06:37:47.468Z,101002.66
2023-09-29T06:40:19.479Z,101005.58
2023-09-29T06:42:57.027Z,101000.52
2023-09-29T06:45:57.248Z,100997.88
2023-09-29T06:48:32.379Z,101003.69
2023-09-29T06:51:24.806Z,101006.23
2023-09-29T06:54:03.951Z,101007.38
2023-09-29T06:56:42.695Z,101009.16
2023-09-29T06:59:12.343Z,101008.14
2023-09-29T07:02:43.842Z,101009.42
2023-09-29T07:05:47.610Z,101005.91
2023-09-29T07:08:39.393Z,101007.58
2023-09-29T07:11:11.040Z,101009.41
2023-09-29T07:13:53.305Z,101008.35
2023-09-29T07:16:30.130Z,101009.15
2023-09-29T07:19:45.471Z,101010.54
2023-09-29T07:22:42.035Z,101012.05
2023-09-29T07:26:01.297Z,101008.23
2023-09-29T07:28:42.099Z,101010.33
2023-09-29T07:32:20.153Z,101009.71
2023-09-29T07:35:14.033Z,101015.53
2023-09-29T07:38:31.804Z,101019.93
2023-09-29T07:41:03.104Z,101017.35
2023-09-29T07:44:52.405Z,101023.44
2023-09-29T07:47:48.791Z,101019.06
2023-09-29T07:51:10.930Z,101014.52
2023-09-29T07:54:01.974Z,101013.65
2023-09-29T07:56:52.180Z,101010.52
2023-09-29T07:59:46.154Z,101009.54
2023-09-29T08:02:26.832Z,101004.80
2023-09-29T08:05:36.404Z,101004.09
2023-09-29T08:08:25.760Z,101002.33
2023-09-29T08:11:02.348Z,101000.11
2023-09-29T08:13:39.368Z,101002.02
2023-09-29T08:16:36.280Z,101004.20
2023-09-29T08:19:29.801Z,101002.87
2023-09-29T08:22:39.921Z,101010.83
2023-09-29T08:25:24.649Z,101007.79
2023-09-29T08:28:33.885Z,101007.15
2023-09-29T08:31:28.987Z,101008.86
2023-09-29T08:34:11.447Z,101012.77
2023-09-29T08:37:31.656Z,101012.73
2023-09-29T08:40:38.362Z,101009.70
2023-09-29T08:44:04.141Z,101013.61
2023-09-29T08:47:01.697Z,101013.27
2023-09-29T08:49:50.192Z,101012.21
2023-09-29T08:53:19.973Z,101010.81
2023-09-29T08:56:06.718Z,101013.98
2023-09-29T08:58:55.686Z,101009.20
2023-09-29T09:01:29.502Z,101007.55
2023-09-29T09:04:01.818Z,101003.60
2023-09-29T09:06:34.548Z,101002.77
2023-09-29T09:09:26.287Z,101001.15
2023-09-29T09:12:07.766Z,100998.29
2023-09-29T09:14:46.312Z,101000.83
2023-09-29T09:17:35.029Z,101002.85
2023-09-29T09:20:29.271Z,100993.80
2023-09-29T09:23:48.717Z,100993.45
2023-09-29T09:26:20.563Z,100986.52
2023-09-29T09:28:48.920Z,100988.77
2023-09-29T09:32:17.063Z,100989.02
2023-09-29T09:34:45.415Z,100984.61
2023-09-29T09:38:00.635Z,100984.56
2023-09-29T09:40:33.720Z,100988.73
2023-09-29T09:43:28.052Z,100981.45
2023-09-29T09:46:32.109Z,100982.95
2023-09-29T09:49:11.904Z,100981.86
2023-09-29T09:51:55.885Z,100982.77
2023-09-29T09:54:42.250Z,100978.75
2023-09-29T09:57:15.464Z,100975.88
2023-09-29T10:00:27.405Z,100976.58
2023-09-29T10:03:27.981Z,100974.89
2023-09-29T10:06:06.828Z,100971.46
2023-09-29T10:09:24.588Z,100971.34
2023-09-29T10:12:32.937Z,100967.69
2023-09-29T10:15:21.762Z,100963.41
2023-09-29T10:18:24.642Z,100967.00
2023-09-29T10:21:05.384Z,100960.71
2023-09-29T10:23:52.063Z,100963.04
2023-09-29T10:26:49.927Z,100959.00
2023-09-29T10:29:51.414Z,100954.80
2023-09-29T10:32:46.764Z,100957.16
2023-09-29T10:35:40.014Z,100955.58
2023-09-29T10:39:00.038Z,100958.53
2023-09-29T10:41:43.614Z,100958.66
2023-09-29T10:44:24.409Z,100959.86
2023-09-29T10:47:23.183Z,100952.46
2023-09-29T10:49:56.542Z,100951.48
2023-09-29T10:52:31.071Z,100946.60
2023-09-29T10:55:00.389Z,100940.69
2023-09-29T10:57:34.337Z,100939.65
2023-09-29T11:00:07.093Z,100931.98
2023-09-29T11:02:38.631Z,100928.15
2023-09-29T11:05:11.146Z,100930.83
2023-09-29T11:07:52.302Z,100921.50
2023-09-29T11:10:41.093Z,100926.88
2023-09-29T11:13:18.721Z,100924.16
2023-09-29T11:15:47.823Z,100919.40
2023-09-29T11:18:42.990Z,100913.73
2023-09-29T11:21:12.397Z,100913.73
2023-09-29T11:23:45.800Z,100909.90
2023-09-29T11:26:50.002Z,100910.56
2023-09-29T11:29:25.315Z,100903.95
2023-09-29T11:31:54.938Z,100896.89
2023-09-29T11:34:24.145Z,100894.08
2023-09-29T11:36:54.970Z,100895.27
2023-09-29T11:39:25.979Z,100885.56
2023-09-29T11:41:54.445Z,100879.31
2023-09-29T11:44:29.472Z,100879.36
2023-09-29T11:46:58.578Z,100880.09
2023-09-29T11:49:27.244Z,100883.25
2023-09-29T11:52:04.956Z,100874.95
2023-09-29T11:54:33.319Z,100877.27
2023-09-29T11:57:03.127Z,100872.72
2023-09-29T11:59:44.742Z,100870.52
2023-09-29T12:02:18.731Z,100866.68
2023-09-29T12:04:49.964Z,100860.63
2023-09-29T12:07:20.318Z,100860.98
2023-09-29T12:09:48.575Z,100862.11
2023-09-29T12:12:32.356Z,100857.71
2023-09-29T12:15:01.232Z,100853.03
2023-09-29T12:17:42.891Z,100850.04
2023-09-29T12:20:15.171Z,100847.35
2023-09-29T12:22:47.927Z,100844.70
2023-09-29T12:25:16.621Z,100842.60
2023-09-29T12:27:47.278Z,100837.95
2023-09-29T12:30:22.933Z,100840.13
2023-09-29T12:33:05.317Z,100826.61
2023-09-29T12:35:45.491Z,100829.02
2023-09-29T12:38:13.877Z,100827.73
2023-09-29T12:40:43.965Z,100825.58
2023-09-29T12:43:26.228Z,100822.02
2023-09-29T12:46:00.254Z,100821.88
2023-09-29T12:48:28.641Z,100822.48
2023-09-29T12:50:57.408Z,100817.77
2023-09-29T12:53:36.451Z,100821.05
2023-09-29T12:56:05.614Z,100812.52
2023-09-29T12:58:34.330Z,100814.92
2023-09-29T13:01:11.880Z,100814.33
2023-09-29T13:03:47.321Z,100805.20
2023-09-29T13:06:16.288Z,100799.95
2023-09-29T13:08:45.420Z,100805.45
2023-09-29T13:11:17.668Z,100798.75
2023-09-29T13:13:52.295Z,100800.70
2023-09-29T13:16:20.877Z,100795.98
2023-09-29T13:19:04.110Z,100795.55
2023-09-29T13:21:35.312Z,100796.09
2023-09-29T13:24:04.243Z,100800.45
2023-09-29T13:26:37.392Z,100802.45
2023-09-29T13:29:05.868Z,100796.23
2023-09-29T13:31:54.617Z,100792.05
2023-09-29T13:34:25.904Z,100788.14
2023-09-29T13:37:01.254Z,100787.58
2023-09-29T13:39:29.650Z,100781.52
2023-09-29T13:41:58.866Z,100775.50
2023-09-29T13:44:27.579Z,100779.98
2023-09-29T13:47:12.180Z,100773.38
2023-09-29T13:49:43.362Z,100773.39
2023-09-29T13:52:25.016Z,100767.36
2023-09-29T13:55:02.713Z,100771.19
2023-09-29T13:57:33.764Z,100765.38
2023-09-29T14:00:03.051Z,100760.63
2023-09-29T14:03:03.021Z,100763.55
2023-09-29T14:05:37.925Z,100755.30
2023-09-29T14:08:51.214Z,100754.05
2023-09-29T14:11:44.320Z,100750.45
2023-09-29T14:14:13.091Z,100750.70
2023-09-29T14:16:53.022Z,100744.90
2023-09-29T14:19:21.550Z,100740.45
2023-09-29T14:22:10.764Z,100735.46
2023-09-29T14:24:54.919Z,100737.80
2023-09-29T14:27:39.279Z,100736.36
2023-09-29T14:30:11.031Z,100730.27
2023-09-29T14:32:49.452Z,100733.84
2023-09-29T14:35:46.372Z,100729.15
2023-09-29T14:38:21.959Z,100724.45
2023-09-29T14:40:57.098Z,100724.89
2023-09-29T14:43:58.155Z,100723.91
2023-09-29T14:46:29.116Z,100724.98
2023-09-29T14:49:08.752Z,100722.71
2023-09-29T14:51:42.851Z,100722.27
2023-09-29T14:54:15.687Z,100722.50
2023-09-29T14:56:49.539Z,100718.92
2023-09-29T14:59:20.539Z,100720.81
2023-09-29T15:01:54.473Z,100715.64
2023-09-29T15:04:29.667Z,100718.04
2023-09-29T15:07:02.084Z,100717.91
2023-09-29T15:10:00.432Z,100710.89
2023-09-29T15:12:51.130Z,100715.69
2023-09-29T15:15:43.111Z,100708.76
2023-09-29T15:18:40.770Z,100709.02
2023-09-29T15:21:12.325Z,100709.30
2023-09-29T15:24:01.765Z,100710.02
2023-09-29T15:27:01.375Z,100708.39
2023-09-29T15:29:53.844Z,100705.20
2023-09-29T15:32:29.986Z,100708.59
2023-09-29T15:35:10.006Z,100701.88
2023-09-29T15:37:44.259Z,100702.29
2023-09-29T15:40:25.348Z,100697.80
2023-09-29T15:43:45.374Z,100700.42
2023-09-29T15:46:31.861Z,100696.54
2023-09-29T15:49:51.031Z,100701.41
2023-09-29T15:52:39.204Z,100704.30
2023-09-29T15:55:11.712Z,100703.85
2023-09-29T15:57:50.814Z,100704.58
2023-09-29T16:00:44.769Z,100705.95
2023-09-29T16:03:38.358Z,100706.35
2023-09-29T16:06:18.208Z,100711.94
2023-09-29T16:08:55.786Z,100712.19
2023-09-29T16:12:44.685Z,100710.41
2023-09-29T16:16:33.922Z,100708.55
2023-09-29T16:19:14.320Z,100709.94
2023-09-29T16:22:23.702Z,100707.34
2023-09-29T16:26:13.056Z,100710.69
2023-09-29T16:29:14.921Z,100712.86
2023-09-29T16:32:37.018Z,100717.41
2023-09-29T16:36:14.571Z,100717.56
2023-09-29T16:39:09.407Z,100718.38
2023-09-29T16:42:30.828Z,100714.69
2023-09-29T16:45:56.109Z,100714.56
2023-09-29T16:49:07.886Z,100718.63
2023-09-29T16:52:27.555Z,100715.48
2023-09-29T16:55:40.720Z,100714.96
2023-09-29T16:59:00.948Z,100710.58
2023-09-29T17:02:49.365Z,100705.04
2023-09-29T17:06:32.218Z,100703.83
2023-09-29T17:10:00.822Z,100701.67
2023-09-29T18:17:29.495Z,100701.23
2023-09-29T18:21:04.288Z,100703.36
2023-09-29T18:24:54.802Z,100694.30
2023-09-29T18:27:59.479Z,100693.65
2023-09-29T18:31:49.993Z,100698.80
2023-09-29T18:35:20.857Z,100695.98
2023-09-29T18:38:42.009Z,100691.46
2023-09-29T18:42:08.554Z,100692.67
2023-09-29T18:45:58.314Z,100694.77
2023-09-29T18:49:36.533Z,100697.72
2023-09-29T19:23:13.981Z,100673.46
2023-09-29T19:27:04.577Z,100671.13
2023-09-29T19:30:55.265Z,100675.63
2023-09-29T19:34:43.701Z,100672.59
2023-09-29T19:38:26.875Z,100672.53
2023-09-29T19:57:27.590Z,100667.77
2023-09-29T20:01:18.127Z,100665.73
2023-09-29T20:05:01.235Z,100665.83
2023-09-29T20:08:52.060Z,100666.70
2023-09-29T20:27:39.131Z,100654.06
2023-09-29T20:31:29.311Z,100651.45
2023-09-29T20:35:02.257Z,100656.11
2023-09-29T20:38:33.367Z,100652.88
2023-09-29T20:42:23.305Z,100649.05
2023-09-29T20:46:13.864Z,100650.99
2023-09-29T21:09:19.059Z,100653.83
2023-09-29T21:13:08.553Z,100657.75
2023-09-29T21:17:04.085Z,100650.23
2023-09-29T21:32:14.496Z,100655.00
2023-09-29T21:35:58.348Z,100647.36
2023-09-29T21:39:49.852Z,100650.33
2023-09-29T21:43:39.283Z,100647.17
2023-09-29T21:47:29.212Z,100647.60
2023-09-29T21:51:20.231Z,100644.17
2023-09-29T22:14:26.127Z,100631.05
2023-09-29T22:18:17.972Z,100627.60
2023-09-29T22:22:08.197Z,100625.56
2023-09-29T22:25:58.583Z,100621.48
2023-09-29T22:29:49.485Z,100619.75
2023-09-29T22:49:17.276Z,100616.95
2023-09-29T22:53:05.226Z,100613.52
2023-09-29T22:56:54.699Z,100610.20
2023-09-29T23:00:44.856Z,100604.98
2023-09-29T23:16:27.523Z,100603.80
2023-09-29T23:20:19.109Z,100596.91
2023-09-29T23:24:10.351Z,100600.60
2023-09-29T23:27:52.653Z,100598.27
2023-09-29T23:43:14.983Z,100593.38
2023-09-29T23:47:05.030Z,100594.77
2023-09-29T23:50:48.448Z,100594.88
2023-09-29T23:54:38.790Z,100596.14
2023-09-29T23:58:28.979Z,100594.77
